Airfield :
LOGIN :

Register | Disclaimer

   EN    FR    IT 

 










Legend :    VFR   Marginal VFR   IFR   Intensive IFR   Very Intensive IFR
Visi :
Ceiling :
>= 8 km
>= 3000ft
5 to 8 km
1000 to 3000 ft
1500m to 5 km
500 to 1000 ft
800 to 1500m
200 to 500 ft
< 800m
< 200 ft
Symbols :   Thunderstorms  Fog  Heavy snow  Heavy precipitations  Wind > 20 kt
SIGMETs :     Misc.  Thunderstorms  Icing  Turbulence  Mountain Waves  Volcanic Ashes






- Airport Elevation : 290 ft
- IATA code : LAI


LFRO - Lannion

CURRENT METAR :
  • 251530Z AUTO 27024G36KT 9999 -RA FEW020/// BKN028/// BKN037/// ///CB 08/04 Q1008

EXPIRED METARs :
  • 251500Z AUTO 28019KT 9000 FEW019/// SCT033/// BKN044/// ///TCU 08/05 Q1008
  • 251430Z AUTO 26027KT 220V280 9999 BKN027/// BKN034/// BKN041/// ///CB 09/04 Q1008
  • 251400Z AUTO 26022G34KT 9999 BKN028/// BKN043/// BKN050/// ///TCU 09/04 Q1008
  • 251330Z AUTO 26027G40KT 9999 -RA SCT032/// BKN042/// BKN066/// ///TCU 09/05 Q1008
  • 251300Z AUTO 25019G31KT 9999 BKN027/// BKN045/// OVC120/// ///TCU 10/05 Q1009

Expired Forecast.



MET'MAP, your aeronautical weather chart ! - Copyright ORBIFLY December 2007 - Disclaimer

ORBIFLY MET'MAP TEAM :

Programming & Development : Alexandra Zaïnal
Concept & original design : Baudouin d'Aumeries
Assistance for programming : Marc-Olivier Méhu
Technical & hardware support : Manuel Goepfert

Contact : metmap@orbifly.com




SOURCES & CREDITS :

   NOAA